sensor_id;sensor_type;location;lat;lon;timestamp;P1;durP1;ratioP1;P2;durP2;ratioP2
39434;SDS011;66825;51.880;-0.518;2023-03-24T00:00:59;1.95;;;0.80;;
39434;SDS011;66825;51.880;-0.518;2023-03-24T00:03:26;1.38;;;0.90;;
39434;SDS011;66825;51.880;-0.518;2023-03-24T00:06:00;1.67;;;0.90;;
39434;SDS011;66825;51.880;-0.518;2023-03-24T00:08:29;1.77;;;0.85;;
39434;SDS011;66825;51.880;-0.518;2023-03-24T00:11:02;1.40;;;0.82;;
39434;SDS011;66825;51.880;-0.518;2023-03-24T00:13:31;1.50;;;0.85;;
39434;SDS011;66825;51.880;-0.518;2023-03-24T00:16:09;1.70;;;0.82;;
39434;SDS011;66825;51.880;-0.518;2023-03-24T00:18:36;1.23;;;0.82;;
39434;SDS011;66825;51.880;-0.518;2023-03-24T00:21:04;1.83;;;0.80;;
39434;SDS011;66825;51.880;-0.518;2023-03-24T00:23:30;1.50;;;0.90;;
39434;SDS011;66825;51.880;-0.518;2023-03-24T00:26:05;1.83;;;1.00;;
39434;SDS011;66825;51.880;-0.518;2023-03-24T00:28:33;1.50;;;0.85;;
39434;SDS011;66825;51.880;-0.518;2023-03-24T00:31:01;2.15;;;1.02;;
39434;SDS011;66825;51.880;-0.518;2023-03-24T00:33:28;1.65;;;0.70;;
39434;SDS011;66825;51.880;-0.518;2023-03-24T00:35:59;1.40;;;0.90;;
39434;SDS011;66825;51.880;-0.518;2023-03-24T00:38:29;1.70;;;0.80;;
39434;SDS011;66825;51.880;-0.518;2023-03-24T00:40:55;1.60;;;0.80;;
39434;SDS011;66825;51.880;-0.518;2023-03-24T00:43:21;1.50;;;0.80;;
39434;SDS011;66825;51.880;-0.518;2023-03-24T00:45:46;2.05;;;1.00;;
39434;SDS011;66825;51.880;-0.518;2023-03-24T00:48:15;1.17;;;0.80;;
39434;SDS011;66825;51.880;-0.518;2023-03-24T00:50:46;1.27;;;0.80;;
39434;SDS011;66825;51.880;-0.518;2023-03-24T00:53:16;1.10;;;0.80;;
39434;SDS011;66825;51.880;-0.518;2023-03-24T00:55:43;1.83;;;0.90;;
39434;SDS011;66825;51.880;-0.518;2023-03-24T00:58:15;1.23;;;0.88;;
39434;SDS011;66825;51.880;-0.518;2023-03-24T01:00:47;2.35;;;0.95;;
39434;SDS011;66825;51.880;-0.518;2023-03-24T01:03:15;1.85;;;0.80;;
39434;SDS011;66825;51.880;-0.518;2023-03-24T01:05:42;1.83;;;0.80;;
39434;SDS011;66825;51.880;-0.518;2023-03-24T01:08:12;1.33;;;0.80;;
39434;SDS011;66825;51.880;-0.518;2023-03-24T01:10:39;1.60;;;0.80;;
39434;SDS011;66825;51.880;-0.518;2023-03-24T01:13:15;2.22;;;0.80;;
39434;SDS011;66825;51.880;-0.518;2023-03-24T01:15:42;1.75;;;0.68;;
39434;SDS011;66825;51.880;-0.518;2023-03-24T01:18:09;1.40;;;0.70;;
39434;SDS011;66825;51.880;-0.518;2023-03-24T01:20:36;1.20;;;0.70;;
39434;SDS011;66825;51.880;-0.518;2023-03-24T01:23:05;1.33;;;0.80;;
39434;SDS011;66825;51.880;-0.518;2023-03-24T01:25:32;1.63;;;0.63;;
39434;SDS011;66825;51.880;-0.518;2023-03-24T01:28:00;2.03;;;1.00;;
39434;SDS011;66825;51.880;-0.518;2023-03-24T01:30:26;1.70;;;0.90;;
39434;SDS011;66825;51.880;-0.518;2023-03-24T01:32:53;1.20;;;0.68;;
39434;SDS011;66825;51.880;-0.518;2023-03-24T01:35:20;1.20;;;0.70;;
39434;SDS011;66825;51.880;-0.518;2023-03-24T01:37:46;1.10;;;0.60;;
39434;SDS011;66825;51.880;-0.518;2023-03-24T01:40:19;0.90;;;0.57;;
39434;SDS011;66825;51.880;-0.518;2023-03-24T01:42:50;1.90;;;0.80;;
39434;SDS011;66825;51.880;-0.518;2023-03-24T01:48:07;2.42;;;1.00;;
39434;SDS011;66825;51.880;-0.518;2023-03-24T01:50:38;1.88;;;0.80;;
39434;SDS011;66825;51.880;-0.518;2023-03-24T01:53:06;1.25;;;0.82;;
39434;SDS011;66825;51.880;-0.518;2023-03-24T01:55:32;1.35;;;0.77;;
39434;SDS011;66825;51.880;-0.518;2023-03-24T01:57:59;1.23;;;0.70;;
39434;SDS011;66825;51.880;-0.518;2023-03-24T02:00:27;2.00;;;0.77;;
39434;SDS011;66825;51.880;-0.518;2023-03-24T02:02:55;1.55;;;0.73;;
39434;SDS011;66825;51.880;-0.518;2023-03-24T02:05:27;3.17;;;0.95;;
39434;SDS011;66825;51.880;-0.518;2023-03-24T02:11:07;1.17;;;0.70;;
39434;SDS011;66825;51.880;-0.518;2023-03-24T02:13:33;1.45;;;0.70;;
39434;SDS011;66825;51.880;-0.518;2023-03-24T02:16:09;1.40;;;0.73;;
39434;SDS011;66825;51.880;-0.518;2023-03-24T02:18:51;1.48;;;0.85;;
39434;SDS011;66825;51.880;-0.518;2023-03-24T02:27:05;1.50;;;0.90;;
39434;SDS011;66825;51.880;-0.518;2023-03-24T02:48:48;1.38;;;0.70;;
39434;SDS011;66825;51.880;-0.518;2023-03-24T02:51:26;1.73;;;0.80;;
39434;SDS011;66825;51.880;-0.518;2023-03-24T02:56:52;1.65;;;0.80;;
39434;SDS011;66825;51.880;-0.518;2023-03-24T02:59:33;2.13;;;1.05;;
39434;SDS011;66825;51.880;-0.518;2023-03-24T03:02:09;2.10;;;1.00;;
39434;SDS011;66825;51.880;-0.518;2023-03-24T03:04:45;1.55;;;0.75;;
39434;SDS011;66825;51.880;-0.518;2023-03-24T03:07:18;1.42;;;0.70;;
39434;SDS011;66825;51.880;-0.518;2023-03-24T03:09:53;1.92;;;1.02;;
39434;SDS011;66825;51.880;-0.518;2023-03-24T03:12:21;1.50;;;0.75;;
39434;SDS011;66825;51.880;-0.518;2023-03-24T03:14:51;1.55;;;0.70;;
39434;SDS011;66825;51.880;-0.518;2023-03-24T03:17:21;2.08;;;0.90;;
39434;SDS011;66825;51.880;-0.518;2023-03-24T03:20:01;1.88;;;0.80;;
39434;SDS011;66825;51.880;-0.518;2023-03-24T03:22:41;2.13;;;0.90;;
39434;SDS011;66825;51.880;-0.518;2023-03-24T03:25:24;1.52;;;0.90;;
39434;SDS011;66825;51.880;-0.518;2023-03-24T03:27:54;2.05;;;0.90;;
39434;SDS011;66825;51.880;-0.518;2023-03-24T03:33:02;1.80;;;0.88;;
39434;SDS011;66825;51.880;-0.518;2023-03-24T03:35:41;1.17;;;0.68;;
39434;SDS011;66825;51.880;-0.518;2023-03-24T03:41:15;1.52;;;0.82;;
39434;SDS011;66825;51.880;-0.518;2023-03-24T03:43:42;1.70;;;0.70;;
39434;SDS011;66825;51.880;-0.518;2023-03-24T03:46:09;1.50;;;0.80;;
39434;SDS011;66825;51.880;-0.518;2023-03-24T03:48:35;1.40;;;0.70;;
39434;SDS011;66825;51.880;-0.518;2023-03-24T03:51:01;1.98;;;0.82;;
39434;SDS011;66825;51.880;-0.518;2023-03-24T03:53:36;1.10;;;0.65;;
39434;SDS011;66825;51.880;-0.518;2023-03-24T03:56:03;1.63;;;0.90;;
39434;SDS011;66825;51.880;-0.518;2023-03-24T03:58:29;2.08;;;0.90;;
39434;SDS011;66825;51.880;-0.518;2023-03-24T04:00:54;1.27;;;0.60;;
39434;SDS011;66825;51.880;-0.518;2023-03-24T04:27:22;2.15;;;0.70;;
39434;SDS011;66825;51.880;-0.518;2023-03-24T04:32:48;1.80;;;0.80;;
39434;SDS011;66825;51.880;-0.518;2023-03-24T04:37:55;1.52;;;0.80;;
39434;SDS011;66825;51.880;-0.518;2023-03-24T04:40:26;1.70;;;0.88;;
39434;SDS011;66825;51.880;-0.518;2023-03-24T04:42:57;1.88;;;0.82;;
39434;SDS011;66825;51.880;-0.518;2023-03-24T04:45:24;1.50;;;1.00;;
39434;SDS011;66825;51.880;-0.518;2023-03-24T04:47:53;2.10;;;0.90;;
39434;SDS011;66825;51.880;-0.518;2023-03-24T04:50:26;1.63;;;0.77;;
39434;SDS011;66825;51.880;-0.518;2023-03-24T04:52:58;2.00;;;0.85;;
39434;SDS011;66825;51.880;-0.518;2023-03-24T04:58:19;1.80;;;0.88;;
39434;SDS011;66825;51.880;-0.518;2023-03-24T05:00:45;1.90;;;0.80;;
39434;SDS011;66825;51.880;-0.518;2023-03-24T05:03:12;1.30;;;0.73;;
39434;SDS011;66825;51.880;-0.518;2023-03-24T05:05:43;1.83;;;0.80;;
39434;SDS011;66825;51.880;-0.518;2023-03-24T05:08:11;2.00;;;0.95;;
39434;SDS011;66825;51.880;-0.518;2023-03-24T05:10:37;2.42;;;0.90;;
39434;SDS011;66825;51.880;-0.518;2023-03-24T05:13:03;1.63;;;0.80;;
39434;SDS011;66825;51.880;-0.518;2023-03-24T05:15:29;1.88;;;0.90;;
39434;SDS011;66825;51.880;-0.518;2023-03-24T05:17:55;1.50;;;0.80;;
39434;SDS011;66825;51.880;-0.518;2023-03-24T05:20:21;1.83;;;0.70;;
39434;SDS011;66825;51.880;-0.518;2023-03-24T05:22:47;1.42;;;0.70;;
39434;SDS011;66825;51.880;-0.518;2023-03-24T05:25:14;1.88;;;0.90;;
39434;SDS011;66825;51.880;-0.518;2023-03-24T05:27:40;1.50;;;0.63;;
39434;SDS011;66825;51.880;-0.518;2023-03-24T05:30:06;1.63;;;0.80;;
39434;SDS011;66825;51.880;-0.518;2023-03-24T05:32:32;1.70;;;0.70;;
39434;SDS011;66825;51.880;-0.518;2023-03-24T05:34:58;2.15;;;0.90;;
39434;SDS011;66825;51.880;-0.518;2023-03-24T05:37:23;1.10;;;0.68;;
39434;SDS011;66825;51.880;-0.518;2023-03-24T05:39:49;1.52;;;0.82;;
39434;SDS011;66825;51.880;-0.518;2023-03-24T05:42:15;1.85;;;0.80;;
39434;SDS011;66825;51.880;-0.518;2023-03-24T05:44:41;1.75;;;0.82;;
39434;SDS011;66825;51.880;-0.518;2023-03-24T05:47:07;1.15;;;0.70;;
39434;SDS011;66825;51.880;-0.518;2023-03-24T05:49:32;1.25;;;0.60;;
39434;SDS011;66825;51.880;-0.518;2023-03-24T05:51:58;2.70;;;1.25;;
39434;SDS011;66825;51.880;-0.518;2023-03-24T05:54:24;1.75;;;0.80;;
39434;SDS011;66825;51.880;-0.518;2023-03-24T05:56:49;1.90;;;0.60;;
39434;SDS011;66825;51.880;-0.518;2023-03-24T05:59:15;2.10;;;0.88;;
39434;SDS011;66825;51.880;-0.518;2023-03-24T06:01:41;1.95;;;0.80;;
39434;SDS011;66825;51.880;-0.518;2023-03-24T06:04:07;1.20;;;0.68;;
39434;SDS011;66825;51.880;-0.518;2023-03-24T06:06:33;2.17;;;1.02;;
39434;SDS011;66825;51.880;-0.518;2023-03-24T06:08:59;1.42;;;0.80;;
39434;SDS011;66825;51.880;-0.518;2023-03-24T06:11:27;2.47;;;1.00;;
39434;SDS011;66825;51.880;-0.518;2023-03-24T06:13:53;1.92;;;0.70;;
39434;SDS011;66825;51.880;-0.518;2023-03-24T06:16:24;2.10;;;0.80;;
39434;SDS011;66825;51.880;-0.518;2023-03-24T06:18:53;1.30;;;0.65;;
39434;SDS011;66825;51.880;-0.518;2023-03-24T06:21:19;1.13;;;0.63;;
39434;SDS011;66825;51.880;-0.518;2023-03-24T06:23:45;1.55;;;0.80;;
39434;SDS011;66825;51.880;-0.518;2023-03-24T06:26:11;1.95;;;0.70;;
39434;SDS011;66825;51.880;-0.518;2023-03-24T06:28:39;1.45;;;0.93;;
39434;SDS011;66825;51.880;-0.518;2023-03-24T06:31:09;1.45;;;0.80;;
39434;SDS011;66825;51.880;-0.518;2023-03-24T06:33:39;1.13;;;0.70;;
39434;SDS011;66825;51.880;-0.518;2023-03-24T06:36:07;1.83;;;0.70;;
39434;SDS011;66825;51.880;-0.518;2023-03-24T06:38:33;1.60;;;0.90;;
39434;SDS011;66825;51.880;-0.518;2023-03-24T06:40:59;1.58;;;0.80;;
39434;SDS011;66825;51.880;-0.518;2023-03-24T06:43:25;1.58;;;0.73;;
39434;SDS011;66825;51.880;-0.518;2023-03-24T06:45:50;0.95;;;0.50;;
39434;SDS011;66825;51.880;-0.518;2023-03-24T06:48:16;1.70;;;0.73;;
39434;SDS011;66825;51.880;-0.518;2023-03-24T06:50:41;1.77;;;0.90;;
39434;SDS011;66825;51.880;-0.518;2023-03-24T06:53:07;1.63;;;0.70;;
39434;SDS011;66825;51.880;-0.518;2023-03-24T06:55:32;1.38;;;0.90;;
39434;SDS011;66825;51.880;-0.518;2023-03-24T06:57:58;2.17;;;0.82;;
39434;SDS011;66825;51.880;-0.518;2023-03-24T07:00:24;1.40;;;0.70;;
39434;SDS011;66825;51.880;-0.518;2023-03-24T07:02:54;1.67;;;0.70;;
39434;SDS011;66825;51.880;-0.518;2023-03-24T07:05:20;1.50;;;0.70;;
39434;SDS011;66825;51.880;-0.518;2023-03-24T07:07:46;1.10;;;0.60;;
39434;SDS011;66825;51.880;-0.518;2023-03-24T07:10:12;1.75;;;0.77;;
39434;SDS011;66825;51.880;-0.518;2023-03-24T07:12:38;1.10;;;0.60;;
39434;SDS011;66825;51.880;-0.518;2023-03-24T07:15:04;2.28;;;0.80;;
39434;SDS011;66825;51.880;-0.518;2023-03-24T07:17:32;1.67;;;0.70;;
39434;SDS011;66825;51.880;-0.518;2023-03-24T07:19:58;1.02;;;0.50;;
39434;SDS011;66825;51.880;-0.518;2023-03-24T07:22:23;2.10;;;0.90;;
39434;SDS011;66825;51.880;-0.518;2023-03-24T07:24:49;1.52;;;0.70;;
39434;SDS011;66825;51.880;-0.518;2023-03-24T07:27:15;1.80;;;0.70;;
39434;SDS011;66825;51.880;-0.518;2023-03-24T07:29:41;1.10;;;0.65;;
39434;SDS011;66825;51.880;-0.518;2023-03-24T07:32:06;1.02;;;0.68;;
39434;SDS011;66825;51.880;-0.518;2023-03-24T07:34:32;1.38;;;0.73;;
39434;SDS011;66825;51.880;-0.518;2023-03-24T07:36:58;1.63;;;0.70;;
39434;SDS011;66825;51.880;-0.518;2023-03-24T07:39:24;1.55;;;0.82;;
39434;SDS011;66825;51.880;-0.518;2023-03-24T07:41:49;3.13;;;1.10;;
39434;SDS011;66825;51.880;-0.518;2023-03-24T07:44:15;1.30;;;0.63;;
39434;SDS011;66825;51.880;-0.518;2023-03-24T07:46:41;1.55;;;0.90;;
39434;SDS011;66825;51.880;-0.518;2023-03-24T07:49:06;1.38;;;0.63;;
39434;SDS011;66825;51.880;-0.518;2023-03-24T07:51:32;2.30;;;0.90;;
39434;SDS011;66825;51.880;-0.518;2023-03-24T07:53:58;1.85;;;1.02;;
39434;SDS011;66825;51.880;-0.518;2023-03-24T07:56:23;1.17;;;0.60;;
39434;SDS011;66825;51.880;-0.518;2023-03-24T07:58:49;1.90;;;0.98;;
39434;SDS011;66825;51.880;-0.518;2023-03-24T08:01:15;2.17;;;0.93;;
39434;SDS011;66825;51.880;-0.518;2023-03-24T08:03:41;2.25;;;0.77;;
39434;SDS011;66825;51.880;-0.518;2023-03-24T08:06:07;1.50;;;0.80;;
39434;SDS011;66825;51.880;-0.518;2023-03-24T08:08:34;2.22;;;1.05;;
39434;SDS011;66825;51.880;-0.518;2023-03-24T08:11:01;2.45;;;0.82;;
39434;SDS011;66825;51.880;-0.518;2023-03-24T08:13:27;2.05;;;1.00;;
39434;SDS011;66825;51.880;-0.518;2023-03-24T08:15:53;1.88;;;1.00;;
39434;SDS011;66825;51.880;-0.518;2023-03-24T08:18:19;2.33;;;1.00;;
39434;SDS011;66825;51.880;-0.518;2023-03-24T08:20:46;2.30;;;1.00;;
39434;SDS011;66825;51.880;-0.518;2023-03-24T08:23:13;4.13;;;1.40;;
39434;SDS011;66825;51.880;-0.518;2023-03-24T08:25:38;4.85;;;1.63;;
39434;SDS011;66825;51.880;-0.518;2023-03-24T08:28:04;4.18;;;1.27;;
39434;SDS011;66825;51.880;-0.518;2023-03-24T08:30:30;5.40;;;1.50;;
39434;SDS011;66825;51.880;-0.518;2023-03-24T08:32:57;3.63;;;1.17;;
39434;SDS011;66825;51.880;-0.518;2023-03-24T08:35:25;4.85;;;1.40;;
39434;SDS011;66825;51.880;-0.518;2023-03-24T08:37:52;4.32;;;1.20;;
39434;SDS011;66825;51.880;-0.518;2023-03-24T08:40:19;5.35;;;1.50;;
39434;SDS011;66825;51.880;-0.518;2023-03-24T08:42:48;4.70;;;1.10;;
39434;SDS011;66825;51.880;-0.518;2023-03-24T08:45:15;6.70;;;1.38;;
39434;SDS011;66825;51.880;-0.518;2023-03-24T08:47:40;4.68;;;1.10;;
39434;SDS011;66825;51.880;-0.518;2023-03-24T08:50:06;5.22;;;1.60;;
39434;SDS011;66825;51.880;-0.518;2023-03-24T08:52:33;3.83;;;1.50;;
39434;SDS011;66825;51.880;-0.518;2023-03-24T08:55:00;3.25;;;1.08;;
39434;SDS011;66825;51.880;-0.518;2023-03-24T08:57:26;5.50;;;1.60;;
39434;SDS011;66825;51.880;-0.518;2023-03-24T08:59:51;6.68;;;1.55;;
39434;SDS011;66825;51.880;-0.518;2023-03-24T09:02:17;5.40;;;1.50;;
39434;SDS011;66825;51.880;-0.518;2023-03-24T09:04:42;4.40;;;1.48;;
39434;SDS011;66825;51.880;-0.518;2023-03-24T09:07:10;5.38;;;1.55;;
39434;SDS011;66825;51.880;-0.518;2023-03-24T09:09:35;4.30;;;1.45;;
39434;SDS011;66825;51.880;-0.518;2023-03-24T09:12:01;4.15;;;1.40;;
39434;SDS011;66825;51.880;-0.518;2023-03-24T09:14:26;4.68;;;1.40;;
39434;SDS011;66825;51.880;-0.518;2023-03-24T09:16:52;6.13;;;1.73;;
39434;SDS011;66825;51.880;-0.518;2023-03-24T09:19:17;4.50;;;1.88;;
39434;SDS011;66825;51.880;-0.518;2023-03-24T09:21:46;4.20;;;1.42;;
39434;SDS011;66825;51.880;-0.518;2023-03-24T09:24:13;3.83;;;1.52;;
39434;SDS011;66825;51.880;-0.518;2023-03-24T09:26:39;4.97;;;1.60;;
39434;SDS011;66825;51.880;-0.518;2023-03-24T09:29:05;5.60;;;1.90;;
39434;SDS011;66825;51.880;-0.518;2023-03-24T09:31:31;5.45;;;1.65;;
39434;SDS011;66825;51.880;-0.518;2023-03-24T09:33:57;5.15;;;1.60;;
39434;SDS011;66825;51.880;-0.518;2023-03-24T09:36:22;5.50;;;1.73;;
39434;SDS011;66825;51.880;-0.518;2023-03-24T09:38:47;5.68;;;1.70;;
39434;SDS011;66825;51.880;-0.518;2023-03-24T09:41:17;4.40;;;1.48;;
39434;SDS011;66825;51.880;-0.518;2023-03-24T09:43:48;5.75;;;1.77;;
39434;SDS011;66825;51.880;-0.518;2023-03-24T09:48:58;3.95;;;1.33;;
39434;SDS011;66825;51.880;-0.518;2023-03-24T09:51:26;3.53;;;1.35;;
39434;SDS011;66825;51.880;-0.518;2023-03-24T09:57:10;5.75;;;1.60;;
39434;SDS011;66825;51.880;-0.518;2023-03-24T09:59:45;8.75;;;2.10;;
39434;SDS011;66825;51.880;-0.518;2023-03-24T10:02:20;4.97;;;1.73;;
39434;SDS011;66825;51.880;-0.518;2023-03-24T10:04:46;8.43;;;2.38;;
39434;SDS011;66825;51.880;-0.518;2023-03-24T10:10:01;5.25;;;1.80;;
39434;SDS011;66825;51.880;-0.518;2023-03-24T10:18:25;15.07;;;2.92;;
39434;SDS011;66825;51.880;-0.518;2023-03-24T10:26:26;8.10;;;2.40;;
39434;SDS011;66825;51.880;-0.518;2023-03-24T10:32:13;6.32;;;1.80;;
39434;SDS011;66825;51.880;-0.518;2023-03-24T10:34:41;6.25;;;2.00;;
39434;SDS011;66825;51.880;-0.518;2023-03-24T10:37:10;5.47;;;1.67;;
39434;SDS011;66825;51.880;-0.518;2023-03-24T10:39:38;3.65;;;1.27;;
39434;SDS011;66825;51.880;-0.518;2023-03-24T10:42:04;7.28;;;1.73;;
39434;SDS011;66825;51.880;-0.518;2023-03-24T10:44:30;5.07;;;1.48;;
39434;SDS011;66825;51.880;-0.518;2023-03-24T10:46:57;5.97;;;1.48;;
39434;SDS011;66825;51.880;-0.518;2023-03-24T10:49:26;7.05;;;1.70;;
39434;SDS011;66825;51.880;-0.518;2023-03-24T10:51:52;6.10;;;1.70;;
39434;SDS011;66825;51.880;-0.518;2023-03-24T10:54:26;4.20;;;1.27;;
39434;SDS011;66825;51.880;-0.518;2023-03-24T11:04:48;6.68;;;2.10;;
39434;SDS011;66825;51.880;-0.518;2023-03-24T11:07:21;9.40;;;1.88;;
39434;SDS011;66825;51.880;-0.518;2023-03-24T11:09:59;8.50;;;1.75;;
39434;SDS011;66825;51.880;-0.518;2023-03-24T11:12:28;14.52;;;3.25;;
39434;SDS011;66825;51.880;-0.518;2023-03-24T11:15:14;6.53;;;2.03;;
39434;SDS011;66825;51.880;-0.518;2023-03-24T11:17:41;10.93;;;1.95;;
39434;SDS011;66825;51.880;-0.518;2023-03-24T11:20:15;6.40;;;1.98;;
39434;SDS011;66825;51.880;-0.518;2023-03-24T11:22:58;4.78;;;1.77;;
39434;SDS011;66825;51.880;-0.518;2023-03-24T11:25:27;8.60;;;1.70;;
39434;SDS011;66825;51.880;-0.518;2023-03-24T11:27:59;7.53;;;1.70;;
39434;SDS011;66825;51.880;-0.518;2023-03-24T11:30:34;7.03;;;1.33;;
39434;SDS011;66825;51.880;-0.518;2023-03-24T11:33:12;7.05;;;1.70;;
39434;SDS011;66825;51.880;-0.518;2023-03-24T11:35:52;4.53;;;1.58;;
39434;SDS011;66825;51.880;-0.518;2023-03-24T11:38:19;4.57;;;1.40;;
39434;SDS011;66825;51.880;-0.518;2023-03-24T11:40:54;4.40;;;1.40;;
39434;SDS011;66825;51.880;-0.518;2023-03-24T11:43:23;3.45;;;1.27;;
39434;SDS011;66825;51.880;-0.518;2023-03-24T11:46:03;5.68;;;1.27;;
39434;SDS011;66825;51.880;-0.518;2023-03-24T11:48:37;4.97;;;1.70;;
39434;SDS011;66825;51.880;-0.518;2023-03-24T11:51:14;8.82;;;2.25;;
39434;SDS011;66825;51.880;-0.518;2023-03-24T11:53:48;6.07;;;1.40;;
39434;SDS011;66825;51.880;-0.518;2023-03-24T11:56:26;4.57;;;1.42;;
39434;SDS011;66825;51.880;-0.518;2023-03-24T12:05:20;4.85;;;1.42;;
39434;SDS011;66825;51.880;-0.518;2023-03-24T12:07:59;4.35;;;1.73;;
39434;SDS011;66825;51.880;-0.518;2023-03-24T12:13:39;6.70;;;1.48;;
39434;SDS011;66825;51.880;-0.518;2023-03-24T12:19:00;7.53;;;1.95;;
39434;SDS011;66825;51.880;-0.518;2023-03-24T12:21:51;4.63;;;1.60;;
39434;SDS011;66825;51.880;-0.518;2023-03-24T12:39:08;8.27;;;1.85;;
39434;SDS011;66825;51.880;-0.518;2023-03-24T12:44:20;7.82;;;1.77;;
39434;SDS011;66825;51.880;-0.518;2023-03-24T12:55:37;4.10;;;1.40;;
39434;SDS011;66825;51.880;-0.518;2023-03-24T13:03:54;4.95;;;1.20;;
39434;SDS011;66825;51.880;-0.518;2023-03-24T13:06:28;2.72;;;1.10;;
39434;SDS011;66825;51.880;-0.518;2023-03-24T13:11:46;6.88;;;1.10;;
39434;SDS011;66825;51.880;-0.518;2023-03-24T13:14:39;4.45;;;1.17;;
39434;SDS011;66825;51.880;-0.518;2023-03-24T13:17:12;4.75;;;1.00;;
39434;SDS011;66825;51.880;-0.518;2023-03-24T13:19:43;5.45;;;1.30;;
39434;SDS011;66825;51.880;-0.518;2023-03-24T13:22:16;5.32;;;1.00;;
39434;SDS011;66825;51.880;-0.518;2023-03-24T13:24:44;4.53;;;1.08;;
39434;SDS011;66825;51.880;-0.518;2023-03-24T13:27:16;3.97;;;1.00;;
39434;SDS011;66825;51.880;-0.518;2023-03-24T13:32:48;5.00;;;1.58;;
39434;SDS011;66825;51.880;-0.518;2023-03-24T13:41:06;6.50;;;1.20;;
39434;SDS011;66825;51.880;-0.518;2023-03-24T13:43:37;4.80;;;1.42;;
39434;SDS011;66825;51.880;-0.518;2023-03-24T13:46:15;4.78;;;1.30;;
39434;SDS011;66825;51.880;-0.518;2023-03-24T13:48:41;3.40;;;1.13;;
39434;SDS011;66825;51.880;-0.518;2023-03-24T13:51:14;3.45;;;1.35;;
39434;SDS011;66825;51.880;-0.518;2023-03-24T13:53:43;5.68;;;1.75;;
39434;SDS011;66825;51.880;-0.518;2023-03-24T13:56:09;6.50;;;1.70;;
39434;SDS011;66825;51.880;-0.518;2023-03-24T13:58:50;2.95;;;1.40;;
39434;SDS011;66825;51.880;-0.518;2023-03-24T14:01:35;7.05;;;1.60;;
39434;SDS011;66825;51.880;-0.518;2023-03-24T14:04:21;3.60;;;1.60;;
39434;SDS011;66825;51.880;-0.518;2023-03-24T14:06:52;4.07;;;1.25;;
39434;SDS011;66825;51.880;-0.518;2023-03-24T14:09:25;5.22;;;1.50;;
39434;SDS011;66825;51.880;-0.518;2023-03-24T14:14:21;6.13;;;1.45;;
39434;SDS011;66825;51.880;-0.518;2023-03-24T14:21:44;5.45;;;1.73;;
39434;SDS011;66825;51.880;-0.518;2023-03-24T14:24:21;7.78;;;2.30;;
39434;SDS011;66825;51.880;-0.518;2023-03-24T14:26:50;4.70;;;1.83;;
39434;SDS011;66825;51.880;-0.518;2023-03-24T14:29:38;7.55;;;1.98;;
39434;SDS011;66825;51.880;-0.518;2023-03-24T14:32:15;4.32;;;1.42;;
39434;SDS011;66825;51.880;-0.518;2023-03-24T14:37:54;6.75;;;1.60;;
39434;SDS011;66825;51.880;-0.518;2023-03-24T14:40:33;3.55;;;1.40;;
39434;SDS011;66825;51.880;-0.518;2023-03-24T14:44:02;2.50;;;0.95;;
39434;SDS011;66825;51.880;-0.518;2023-03-24T14:51:44;3.53;;;1.20;;
39434;SDS011;66825;51.880;-0.518;2023-03-24T14:54:18;2.28;;;1.00;;
39434;SDS011;66825;51.880;-0.518;2023-03-24T14:57:08;3.20;;;1.17;;
39434;SDS011;66825;51.880;-0.518;2023-03-24T15:02:39;3.13;;;1.17;;
39434;SDS011;66825;51.880;-0.518;2023-03-24T15:07:58;4.82;;;1.08;;
39434;SDS011;66825;51.880;-0.518;2023-03-24T15:10:59;3.83;;;1.40;;
39434;SDS011;66825;51.880;-0.518;2023-03-24T15:18:35;3.85;;;1.27;;
39434;SDS011;66825;51.880;-0.518;2023-03-24T15:21:37;4.47;;;1.10;;
39434;SDS011;66825;51.880;-0.518;2023-03-24T15:29:11;2.95;;;0.82;;
39434;SDS011;66825;51.880;-0.518;2023-03-24T15:31:37;3.83;;;1.30;;
39434;SDS011;66825;51.880;-0.518;2023-03-24T15:36:53;3.67;;;0.98;;
39434;SDS011;66825;51.880;-0.518;2023-03-24T15:39:22;5.22;;;1.00;;
39434;SDS011;66825;51.880;-0.518;2023-03-24T15:44:20;3.25;;;0.80;;
39434;SDS011;66825;51.880;-0.518;2023-03-24T15:46:52;2.72;;;1.00;;
39434;SDS011;66825;51.880;-0.518;2023-03-24T15:49:22;3.50;;;1.00;;
39434;SDS011;66825;51.880;-0.518;2023-03-24T15:51:51;4.60;;;1.00;;
39434;SDS011;66825;51.880;-0.518;2023-03-24T15:54:39;4.00;;;1.02;;
39434;SDS011;66825;51.880;-0.518;2023-03-24T15:57:15;3.55;;;1.00;;
39434;SDS011;66825;51.880;-0.518;2023-03-24T15:59:47;2.92;;;1.02;;
39434;SDS011;66825;51.880;-0.518;2023-03-24T16:02:28;2.50;;;1.05;;
39434;SDS011;66825;51.880;-0.518;2023-03-24T16:04:59;3.75;;;1.00;;
39434;SDS011;66825;51.880;-0.518;2023-03-24T16:07:35;3.80;;;1.13;;
39434;SDS011;66825;51.880;-0.518;2023-03-24T16:10:03;4.13;;;1.00;;
39434;SDS011;66825;51.880;-0.518;2023-03-24T16:12:36;2.83;;;1.10;;
39434;SDS011;66825;51.880;-0.518;2023-03-24T16:15:02;3.80;;;1.20;;
39434;SDS011;66825;51.880;-0.518;2023-03-24T16:17:32;4.20;;;1.10;;
39434;SDS011;66825;51.880;-0.518;2023-03-24T16:19:58;3.22;;;0.98;;
39434;SDS011;66825;51.880;-0.518;2023-03-24T16:22:23;3.55;;;1.10;;
39434;SDS011;66825;51.880;-0.518;2023-03-24T16:24:49;3.63;;;1.05;;
39434;SDS011;66825;51.880;-0.518;2023-03-24T16:27:15;4.38;;;1.20;;
39434;SDS011;66825;51.880;-0.518;2023-03-24T16:29:41;3.20;;;0.98;;
39434;SDS011;66825;51.880;-0.518;2023-03-24T16:32:07;2.58;;;1.00;;
39434;SDS011;66825;51.880;-0.518;2023-03-24T16:34:33;4.63;;;1.00;;
39434;SDS011;66825;51.880;-0.518;2023-03-24T16:37:00;5.22;;;1.35;;
39434;SDS011;66825;51.880;-0.518;2023-03-24T16:39:27;4.65;;;1.15;;
39434;SDS011;66825;51.880;-0.518;2023-03-24T16:41:53;4.47;;;1.10;;
39434;SDS011;66825;51.880;-0.518;2023-03-24T16:44:19;3.33;;;1.20;;
39434;SDS011;66825;51.880;-0.518;2023-03-24T16:46:46;12.50;;;2.28;;
39434;SDS011;66825;51.880;-0.518;2023-03-24T16:49:15;5.72;;;1.90;;
39434;SDS011;66825;51.880;-0.518;2023-03-24T16:51:42;8.60;;;1.80;;
39434;SDS011;66825;51.880;-0.518;2023-03-24T16:54:08;9.93;;;2.05;;
39434;SDS011;66825;51.880;-0.518;2023-03-24T16:56:33;5.75;;;1.80;;
39434;SDS011;66825;51.880;-0.518;2023-03-24T16:59:00;7.15;;;2.10;;
39434;SDS011;66825;51.880;-0.518;2023-03-24T17:01:31;5.10;;;1.50;;
39434;SDS011;66825;51.880;-0.518;2023-03-24T17:03:58;4.72;;;1.60;;
39434;SDS011;66825;51.880;-0.518;2023-03-24T17:06:26;7.72;;;2.03;;
39434;SDS011;66825;51.880;-0.518;2023-03-24T17:08:54;5.10;;;1.50;;
39434;SDS011;66825;51.880;-0.518;2023-03-24T17:11:34;6.70;;;1.52;;
39434;SDS011;66825;51.880;-0.518;2023-03-24T17:14:01;6.25;;;1.85;;
39434;SDS011;66825;51.880;-0.518;2023-03-24T17:16:36;4.97;;;1.50;;
39434;SDS011;66825;51.880;-0.518;2023-03-24T17:19:07;5.53;;;1.77;;
39434;SDS011;66825;51.880;-0.518;2023-03-24T17:21:44;3.45;;;1.50;;
39434;SDS011;66825;51.880;-0.518;2023-03-24T17:24:13;4.15;;;1.52;;
39434;SDS011;66825;51.880;-0.518;2023-03-24T17:26:39;5.05;;;1.80;;
39434;SDS011;66825;51.880;-0.518;2023-03-24T17:29:05;3.35;;;1.42;;
39434;SDS011;66825;51.880;-0.518;2023-03-24T17:31:33;4.60;;;1.45;;
39434;SDS011;66825;51.880;-0.518;2023-03-24T17:33:58;4.70;;;1.50;;
39434;SDS011;66825;51.880;-0.518;2023-03-24T17:36:24;4.30;;;1.42;;
39434;SDS011;66825;51.880;-0.518;2023-03-24T17:38:49;4.95;;;1.30;;
39434;SDS011;66825;51.880;-0.518;2023-03-24T17:41:15;4.88;;;1.60;;
39434;SDS011;66825;51.880;-0.518;2023-03-24T17:43:41;5.10;;;1.38;;
39434;SDS011;66825;51.880;-0.518;2023-03-24T17:46:09;4.50;;;1.48;;
39434;SDS011;66825;51.880;-0.518;2023-03-24T17:48:34;3.53;;;1.58;;
39434;SDS011;66825;51.880;-0.518;2023-03-24T17:51:01;3.22;;;1.20;;
39434;SDS011;66825;51.880;-0.518;2023-03-24T17:53:26;3.00;;;1.25;;
39434;SDS011;66825;51.880;-0.518;2023-03-24T17:55:52;3.58;;;1.50;;
39434;SDS011;66825;51.880;-0.518;2023-03-24T17:58:22;4.43;;;1.50;;
39434;SDS011;66825;51.880;-0.518;2023-03-24T18:00:49;5.63;;;1.30;;
39434;SDS011;66825;51.880;-0.518;2023-03-24T18:03:14;4.75;;;1.40;;